Shaw AFB, South Carolina
Current Conditions -  °F | °C
As of 9:58 PM on Friday 24 Oct 2014 (Local Time) from KSSC Reporting Station
Scattered Clouds Scattered Clouds  
Wind Chill: 58°   Ceiling: Unl
Heat Index: 58°   Visibility: 10mi
Dew Point: 48°   Wind: 5mph
Humidity: 70%   Direction: 290°WNW
Pressure: 30"   Gusts: NA
Location:  33.98°N, 80.48°W
Report Text: KSSC 250158Z AUTO 29004KT 10SM SCT180 14/09 A3000 RMK AO2 SLP160 T01440089 $
Loading
Personal Weather Stations






























Interactive Weather Map
Tropical Storm Tracking
New forecast layout! Learn more

10-Day Weather Forecast

Advertisements
Track Severe Weather on mobile